sensor_id;sensor_type;location;lat;lon;timestamp;P1;durP1;ratioP1;P2;durP2;ratioP2
59338;SDS011;45117;50.960;5.500;2022-07-15T00:02:00;6.95;;;2.40;;
59338;SDS011;45117;50.960;5.500;2022-07-15T00:04:26;7.05;;;2.92;;
59338;SDS011;45117;50.960;5.500;2022-07-15T00:06:53;6.25;;;2.20;;
59338;SDS011;45117;50.960;5.500;2022-07-15T00:09:20;11.23;;;2.90;;
59338;SDS011;45117;50.960;5.500;2022-07-15T00:12:07;7.43;;;2.92;;
59338;SDS011;45117;50.960;5.500;2022-07-15T00:14:34;6.53;;;2.58;;
59338;SDS011;45117;50.960;5.500;2022-07-15T00:17:01;6.05;;;2.40;;
59338;SDS011;45117;50.960;5.500;2022-07-15T00:19:27;9.43;;;2.50;;
59338;SDS011;45117;50.960;5.500;2022-07-15T00:21:54;8.90;;;2.60;;
59338;SDS011;45117;50.960;5.500;2022-07-15T00:24:21;7.00;;;2.40;;
59338;SDS011;45117;50.960;5.500;2022-07-15T00:26:48;5.38;;;2.45;;
59338;SDS011;45117;50.960;5.500;2022-07-15T00:29:16;7.35;;;2.50;;
59338;SDS011;45117;50.960;5.500;2022-07-15T00:31:42;7.68;;;2.60;;
59338;SDS011;45117;50.960;5.500;2022-07-15T00:34:09;5.60;;;2.58;;
59338;SDS011;45117;50.960;5.500;2022-07-15T00:36:35;10.23;;;2.53;;
59338;SDS011;45117;50.960;5.500;2022-07-15T00:39:02;6.95;;;2.67;;
59338;SDS011;45117;50.960;5.500;2022-07-15T00:41:34;8.48;;;2.50;;
59338;SDS011;45117;50.960;5.500;2022-07-15T00:44:02;9.40;;;2.65;;
59338;SDS011;45117;50.960;5.500;2022-07-15T00:46:30;10.43;;;2.72;;
59338;SDS011;45117;50.960;5.500;2022-07-15T00:48:57;8.88;;;3.05;;
59338;SDS011;45117;50.960;5.500;2022-07-15T00:51:24;7.40;;;2.90;;
59338;SDS011;45117;50.960;5.500;2022-07-15T00:53:50;7.82;;;2.53;;
59338;SDS011;45117;50.960;5.500;2022-07-15T00:56:19;5.72;;;2.40;;
59338;SDS011;45117;50.960;5.500;2022-07-15T00:58:47;9.23;;;2.60;;
59338;SDS011;45117;50.960;5.500;2022-07-15T01:01:15;11.20;;;3.30;;
59338;SDS011;45117;50.960;5.500;2022-07-15T01:03:46;5.10;;;2.55;;
59338;SDS011;45117;50.960;5.500;2022-07-15T01:06:14;7.97;;;3.05;;
59338;SDS011;45117;50.960;5.500;2022-07-15T01:08:41;6.03;;;2.47;;
59338;SDS011;45117;50.960;5.500;2022-07-15T01:11:08;7.50;;;2.90;;
59338;SDS011;45117;50.960;5.500;2022-07-15T01:13:35;10.50;;;2.88;;
59338;SDS011;45117;50.960;5.500;2022-07-15T01:16:01;6.97;;;3.13;;
59338;SDS011;45117;50.960;5.500;2022-07-15T01:18:28;5.63;;;2.85;;
59338;SDS011;45117;50.960;5.500;2022-07-15T01:20:56;7.65;;;3.08;;
59338;SDS011;45117;50.960;5.500;2022-07-15T01:23:23;11.73;;;3.20;;
59338;SDS011;45117;50.960;5.500;2022-07-15T01:25:49;10.32;;;2.60;;
59338;SDS011;45117;50.960;5.500;2022-07-15T01:28:18;7.57;;;2.95;;
59338;SDS011;45117;50.960;5.500;2022-07-15T01:30:45;10.02;;;2.70;;
59338;SDS011;45117;50.960;5.500;2022-07-15T01:33:11;8.50;;;2.60;;
59338;SDS011;45117;50.960;5.500;2022-07-15T01:35:38;9.27;;;2.70;;
59338;SDS011;45117;50.960;5.500;2022-07-15T01:38:06;9.13;;;3.20;;
59338;SDS011;45117;50.960;5.500;2022-07-15T01:40:33;12.40;;;3.05;;
59338;SDS011;45117;50.960;5.500;2022-07-15T01:43:00;8.25;;;2.90;;
59338;SDS011;45117;50.960;5.500;2022-07-15T01:45:26;6.28;;;2.63;;
59338;SDS011;45117;50.960;5.500;2022-07-15T01:47:53;13.02;;;2.88;;
59338;SDS011;45117;50.960;5.500;2022-07-15T01:50:20;5.50;;;2.65;;
59338;SDS011;45117;50.960;5.500;2022-07-15T01:52:47;9.38;;;2.90;;
59338;SDS011;45117;50.960;5.500;2022-07-15T01:55:15;9.65;;;2.90;;
59338;SDS011;45117;50.960;5.500;2022-07-15T01:57:42;8.70;;;2.70;;
59338;SDS011;45117;50.960;5.500;2022-07-15T02:00:09;5.57;;;2.45;;
59338;SDS011;45117;50.960;5.500;2022-07-15T02:02:38;6.07;;;2.10;;
59338;SDS011;45117;50.960;5.500;2022-07-15T02:05:05;7.38;;;2.75;;
59338;SDS011;45117;50.960;5.500;2022-07-15T02:07:32;9.48;;;2.90;;
59338;SDS011;45117;50.960;5.500;2022-07-15T02:09:58;8.23;;;2.60;;
59338;SDS011;45117;50.960;5.500;2022-07-15T02:12:26;7.07;;;3.03;;
59338;SDS011;45117;50.960;5.500;2022-07-15T02:14:53;9.27;;;3.20;;
59338;SDS011;45117;50.960;5.500;2022-07-15T02:17:19;10.05;;;3.08;;
59338;SDS011;45117;50.960;5.500;2022-07-15T02:19:46;10.23;;;3.03;;
59338;SDS011;45117;50.960;5.500;2022-07-15T02:22:13;11.85;;;3.38;;
59338;SDS011;45117;50.960;5.500;2022-07-15T02:24:40;7.40;;;2.72;;
59338;SDS011;45117;50.960;5.500;2022-07-15T02:27:07;12.20;;;3.20;;
59338;SDS011;45117;50.960;5.500;2022-07-15T02:29:35;7.43;;;3.28;;
59338;SDS011;45117;50.960;5.500;2022-07-15T02:32:01;6.93;;;3.10;;
59338;SDS011;45117;50.960;5.500;2022-07-15T02:34:28;6.78;;;2.50;;
59338;SDS011;45117;50.960;5.500;2022-07-15T02:36:55;6.75;;;2.60;;
59338;SDS011;45117;50.960;5.500;2022-07-15T02:39:21;5.70;;;2.33;;
59338;SDS011;45117;50.960;5.500;2022-07-15T02:41:48;9.15;;;2.55;;
59338;SDS011;45117;50.960;5.500;2022-07-15T02:44:14;9.63;;;2.53;;
59338;SDS011;45117;50.960;5.500;2022-07-15T02:46:42;5.95;;;2.65;;
59338;SDS011;45117;50.960;5.500;2022-07-15T02:49:09;7.90;;;3.13;;
59338;SDS011;45117;50.960;5.500;2022-07-15T02:51:36;8.93;;;3.58;;
59338;SDS011;45117;50.960;5.500;2022-07-15T02:54:02;9.45;;;3.65;;
59338;SDS011;45117;50.960;5.500;2022-07-15T02:56:29;7.93;;;3.45;;
59338;SDS011;45117;50.960;5.500;2022-07-15T02:58:56;6.47;;;3.20;;
59338;SDS011;45117;50.960;5.500;2022-07-15T03:01:22;8.85;;;3.25;;
59338;SDS011;45117;50.960;5.500;2022-07-15T03:03:50;8.48;;;3.10;;
59338;SDS011;45117;50.960;5.500;2022-07-15T03:06:18;9.18;;;3.40;;
59338;SDS011;45117;50.960;5.500;2022-07-15T03:08:45;8.40;;;3.13;;
59338;SDS011;45117;50.960;5.500;2022-07-15T03:11:11;12.68;;;3.17;;
59338;SDS011;45117;50.960;5.500;2022-07-15T03:13:38;8.82;;;3.20;;
59338;SDS011;45117;50.960;5.500;2022-07-15T03:16:05;8.00;;;3.05;;
59338;SDS011;45117;50.960;5.500;2022-07-15T03:18:31;8.75;;;3.30;;
59338;SDS011;45117;50.960;5.500;2022-07-15T03:20:59;7.30;;;3.22;;
59338;SDS011;45117;50.960;5.500;2022-07-15T03:23:27;8.38;;;2.95;;
59338;SDS011;45117;50.960;5.500;2022-07-15T03:25:53;7.35;;;3.20;;
59338;SDS011;45117;50.960;5.500;2022-07-15T03:28:20;10.02;;;3.55;;
59338;SDS011;45117;50.960;5.500;2022-07-15T03:30:46;6.68;;;2.83;;
59338;SDS011;45117;50.960;5.500;2022-07-15T03:33:13;9.80;;;3.17;;
59338;SDS011;45117;50.960;5.500;2022-07-15T03:35:39;11.60;;;3.85;;
59338;SDS011;45117;50.960;5.500;2022-07-15T03:38:09;8.48;;;3.22;;
59338;SDS011;45117;50.960;5.500;2022-07-15T03:40:35;4.80;;;2.80;;
59338;SDS011;45117;50.960;5.500;2022-07-15T03:43:02;6.45;;;3.05;;
59338;SDS011;45117;50.960;5.500;2022-07-15T03:45:28;10.98;;;3.35;;
59338;SDS011;45117;50.960;5.500;2022-07-15T03:47:55;8.75;;;3.13;;
59338;SDS011;45117;50.960;5.500;2022-07-15T03:50:21;6.13;;;2.85;;
59338;SDS011;45117;50.960;5.500;2022-07-15T03:52:48;8.32;;;3.70;;
59338;SDS011;45117;50.960;5.500;2022-07-15T03:55:16;10.82;;;3.17;;
59338;SDS011;45117;50.960;5.500;2022-07-15T03:57:42;9.55;;;3.42;;
59338;SDS011;45117;50.960;5.500;2022-07-15T04:00:09;7.32;;;3.40;;
59338;SDS011;45117;50.960;5.500;2022-07-15T04:02:36;8.65;;;3.50;;
59338;SDS011;45117;50.960;5.500;2022-07-15T04:05:04;8.63;;;3.60;;
59338;SDS011;45117;50.960;5.500;2022-07-15T04:07:31;9.70;;;3.35;;
59338;SDS011;45117;50.960;5.500;2022-07-15T04:09:57;11.45;;;3.70;;
59338;SDS011;45117;50.960;5.500;2022-07-15T04:12:25;10.85;;;3.15;;
59338;SDS011;45117;50.960;5.500;2022-07-15T04:14:52;8.57;;;3.80;;
59338;SDS011;45117;50.960;5.500;2022-07-15T04:17:19;8.90;;;3.42;;
59338;SDS011;45117;50.960;5.500;2022-07-15T04:19:46;8.07;;;3.40;;
59338;SDS011;45117;50.960;5.500;2022-07-15T04:22:12;8.20;;;3.78;;
59338;SDS011;45117;50.960;5.500;2022-07-15T04:24:39;9.05;;;3.78;;
59338;SDS011;45117;50.960;5.500;2022-07-15T04:27:05;9.60;;;4.13;;
59338;SDS011;45117;50.960;5.500;2022-07-15T04:29:33;10.82;;;3.95;;
59338;SDS011;45117;50.960;5.500;2022-07-15T04:32:01;9.57;;;3.60;;
59338;SDS011;45117;50.960;5.500;2022-07-15T04:34:27;9.18;;;3.78;;
59338;SDS011;45117;50.960;5.500;2022-07-15T04:36:54;11.57;;;3.90;;
59338;SDS011;45117;50.960;5.500;2022-07-15T04:39:20;10.63;;;4.00;;
59338;SDS011;45117;50.960;5.500;2022-07-15T04:41:47;12.02;;;4.20;;
59338;SDS011;45117;50.960;5.500;2022-07-15T04:44:15;8.18;;;3.92;;
59338;SDS011;45117;50.960;5.500;2022-07-15T04:46:43;9.55;;;3.80;;
59338;SDS011;45117;50.960;5.500;2022-07-15T04:49:09;13.60;;;4.57;;
59338;SDS011;45117;50.960;5.500;2022-07-15T04:51:53;11.25;;;4.25;;
59338;SDS011;45117;50.960;5.500;2022-07-15T04:54:20;11.18;;;4.03;;
59338;SDS011;45117;50.960;5.500;2022-07-15T04:56:46;12.95;;;4.10;;
59338;SDS011;45117;50.960;5.500;2022-07-15T04:59:13;11.10;;;3.90;;
59338;SDS011;45117;50.960;5.500;2022-07-15T05:01:39;12.73;;;4.47;;
59338;SDS011;45117;50.960;5.500;2022-07-15T05:04:07;10.98;;;4.45;;
59338;SDS011;45117;50.960;5.500;2022-07-15T05:06:34;11.07;;;4.20;;
59338;SDS011;45117;50.960;5.500;2022-07-15T05:09:01;12.05;;;4.20;;
59338;SDS011;45117;50.960;5.500;2022-07-15T05:11:27;11.38;;;4.07;;
59338;SDS011;45117;50.960;5.500;2022-07-15T05:13:54;12.00;;;4.25;;
59338;SDS011;45117;50.960;5.500;2022-07-15T05:16:20;9.52;;;3.97;;
59338;SDS011;45117;50.960;5.500;2022-07-15T05:18:47;9.40;;;4.78;;
59338;SDS011;45117;50.960;5.500;2022-07-15T05:21:15;13.50;;;4.07;;
59338;SDS011;45117;50.960;5.500;2022-07-15T05:23:41;12.52;;;4.30;;
59338;SDS011;45117;50.960;5.500;2022-07-15T05:26:08;11.20;;;4.30;;
59338;SDS011;45117;50.960;5.500;2022-07-15T05:28:36;8.10;;;3.80;;
59338;SDS011;45117;50.960;5.500;2022-07-15T05:31:03;12.68;;;4.00;;
59338;SDS011;45117;50.960;5.500;2022-07-15T05:33:29;11.00;;;3.72;;
59338;SDS011;45117;50.960;5.500;2022-07-15T05:35:56;10.55;;;3.75;;
59338;SDS011;45117;50.960;5.500;2022-07-15T05:38:24;10.30;;;3.45;;
59338;SDS011;45117;50.960;5.500;2022-07-15T05:40:51;5.88;;;3.30;;
59338;SDS011;45117;50.960;5.500;2022-07-15T05:43:18;9.82;;;3.75;;
59338;SDS011;45117;50.960;5.500;2022-07-15T05:45:45;7.20;;;3.15;;
59338;SDS011;45117;50.960;5.500;2022-07-15T05:48:11;8.90;;;3.00;;
59338;SDS011;45117;50.960;5.500;2022-07-15T05:50:38;11.70;;;2.95;;
59338;SDS011;45117;50.960;5.500;2022-07-15T05:53:04;6.03;;;2.50;;
59338;SDS011;45117;50.960;5.500;2022-07-15T05:55:32;6.95;;;2.50;;
59338;SDS011;45117;50.960;5.500;2022-07-15T05:57:59;6.05;;;2.75;;
59338;SDS011;45117;50.960;5.500;2022-07-15T06:00:25;8.18;;;2.60;;
59338;SDS011;45117;50.960;5.500;2022-07-15T06:02:52;7.43;;;2.60;;
59338;SDS011;45117;50.960;5.500;2022-07-15T06:05:18;8.63;;;2.40;;
59338;SDS011;45117;50.960;5.500;2022-07-15T06:07:45;6.95;;;2.50;;
59338;SDS011;45117;50.960;5.500;2022-07-15T06:10:12;10.43;;;2.70;;
59338;SDS011;45117;50.960;5.500;2022-07-15T06:12:40;5.80;;;2.50;;
59338;SDS011;45117;50.960;5.500;2022-07-15T06:15:07;7.40;;;2.38;;
59338;SDS011;45117;50.960;5.500;2022-07-15T06:17:34;6.13;;;1.92;;
59338;SDS011;45117;50.960;5.500;2022-07-15T06:20:01;5.40;;;2.20;;
59338;SDS011;45117;50.960;5.500;2022-07-15T06:22:27;4.93;;;2.40;;
59338;SDS011;45117;50.960;5.500;2022-07-15T06:24:54;7.82;;;2.35;;
59338;SDS011;45117;50.960;5.500;2022-07-15T06:27:20;6.10;;;2.10;;
59338;SDS011;45117;50.960;5.500;2022-07-15T06:29:48;8.27;;;2.08;;
59338;SDS011;45117;50.960;5.500;2022-07-15T06:32:15;6.28;;;2.25;;
59338;SDS011;45117;50.960;5.500;2022-07-15T06:34:42;6.20;;;1.92;;
59338;SDS011;45117;50.960;5.500;2022-07-15T06:37:08;6.80;;;1.88;;
59338;SDS011;45117;50.960;5.500;2022-07-15T06:39:35;5.72;;;1.40;;
59338;SDS011;45117;50.960;5.500;2022-07-15T06:42:02;3.70;;;1.48;;
59338;SDS011;45117;50.960;5.500;2022-07-15T06:44:28;5.28;;;1.60;;
59338;SDS011;45117;50.960;5.500;2022-07-15T06:46:56;4.28;;;1.42;;
59338;SDS011;45117;50.960;5.500;2022-07-15T06:49:23;4.45;;;1.17;;
59338;SDS011;45117;50.960;5.500;2022-07-15T06:51:50;7.20;;;1.52;;
59338;SDS011;45117;50.960;5.500;2022-07-15T06:54:16;5.32;;;1.30;;
59338;SDS011;45117;50.960;5.500;2022-07-15T06:56:43;4.68;;;1.48;;
59338;SDS011;45117;50.960;5.500;2022-07-15T06:59:10;4.72;;;1.30;;
59338;SDS011;45117;50.960;5.500;2022-07-15T07:01:36;5.57;;;1.40;;
59338;SDS011;45117;50.960;5.500;2022-07-15T07:04:04;3.50;;;1.05;;
59338;SDS011;45117;50.960;5.500;2022-07-15T07:06:31;3.88;;;1.20;;
59338;SDS011;45117;50.960;5.500;2022-07-15T07:08:58;5.35;;;1.23;;
59338;SDS011;45117;50.960;5.500;2022-07-15T07:11:25;5.45;;;1.00;;
59338;SDS011;45117;50.960;5.500;2022-07-15T07:13:51;6.18;;;1.35;;
59338;SDS011;45117;50.960;5.500;2022-07-15T07:16:18;6.57;;;1.40;;
59338;SDS011;45117;50.960;5.500;2022-07-15T07:18:45;6.88;;;1.10;;
59338;SDS011;45117;50.960;5.500;2022-07-15T07:21:14;4.45;;;1.20;;
59338;SDS011;45117;50.960;5.500;2022-07-15T07:23:40;7.35;;;1.30;;
59338;SDS011;45117;50.960;5.500;2022-07-15T07:26:08;7.78;;;1.23;;
59338;SDS011;45117;50.960;5.500;2022-07-15T07:28:35;5.05;;;1.08;;
59338;SDS011;45117;50.960;5.500;2022-07-15T07:31:04;4.85;;;1.10;;
59338;SDS011;45117;50.960;5.500;2022-07-15T07:33:31;4.45;;;1.00;;
59338;SDS011;45117;50.960;5.500;2022-07-15T07:35:58;4.88;;;1.02;;
59338;SDS011;45117;50.960;5.500;2022-07-15T07:38:26;5.32;;;1.15;;
59338;SDS011;45117;50.960;5.500;2022-07-15T07:40:52;3.80;;;1.23;;
59338;SDS011;45117;50.960;5.500;2022-07-15T07:43:19;3.75;;;1.00;;
59338;SDS011;45117;50.960;5.500;2022-07-15T07:45:45;5.13;;;1.10;;
59338;SDS011;45117;50.960;5.500;2022-07-15T07:48:13;4.32;;;1.23;;
59338;SDS011;45117;50.960;5.500;2022-07-15T07:50:41;4.88;;;0.70;;
59338;SDS011;45117;50.960;5.500;2022-07-15T07:53:08;4.43;;;1.00;;
59338;SDS011;45117;50.960;5.500;2022-07-15T07:55:37;2.83;;;0.70;;
59338;SDS011;45117;50.960;5.500;2022-07-15T07:58:04;3.97;;;0.90;;
59338;SDS011;45117;50.960;5.500;2022-07-15T08:00:31;3.67;;;0.90;;
59338;SDS011;45117;50.960;5.500;2022-07-15T08:02:58;4.35;;;1.02;;
59338;SDS011;45117;50.960;5.500;2022-07-15T08:05:26;3.78;;;1.00;;
59338;SDS011;45117;50.960;5.500;2022-07-15T08:08:05;5.97;;;1.23;;
59338;SDS011;45117;50.960;5.500;2022-07-15T08:10:33;3.20;;;0.80;;
59338;SDS011;45117;50.960;5.500;2022-07-15T08:13:01;4.95;;;1.13;;
59338;SDS011;45117;50.960;5.500;2022-07-15T08:15:27;6.28;;;0.90;;
59338;SDS011;45117;50.960;5.500;2022-07-15T08:17:54;3.13;;;0.80;;
59338;SDS011;45117;50.960;5.500;2022-07-15T08:20:21;4.97;;;0.80;;
59338;SDS011;45117;50.960;5.500;2022-07-15T08:22:48;5.20;;;0.98;;
59338;SDS011;45117;50.960;5.500;2022-07-15T08:25:15;4.15;;;1.00;;
59338;SDS011;45117;50.960;5.500;2022-07-15T08:27:41;4.85;;;0.85;;
59338;SDS011;45117;50.960;5.500;2022-07-15T08:30:10;2.70;;;0.60;;
59338;SDS011;45117;50.960;5.500;2022-07-15T08:32:36;3.25;;;0.70;;
59338;SDS011;45117;50.960;5.500;2022-07-15T08:35:03;2.95;;;0.70;;
59338;SDS011;45117;50.960;5.500;2022-07-15T08:37:30;4.93;;;0.80;;
59338;SDS011;45117;50.960;5.500;2022-07-15T08:39:57;3.17;;;0.90;;
59338;SDS011;45117;50.960;5.500;2022-07-15T08:42:23;3.35;;;0.60;;
59338;SDS011;45117;50.960;5.500;2022-07-15T08:44:50;2.28;;;0.57;;
59338;SDS011;45117;50.960;5.500;2022-07-15T08:47:20;1.33;;;0.60;;
59338;SDS011;45117;50.960;5.500;2022-07-15T08:49:49;2.28;;;0.68;;
59338;SDS011;45117;50.960;5.500;2022-07-15T08:52:20;3.08;;;0.60;;
59338;SDS011;45117;50.960;5.500;2022-07-15T08:54:48;2.90;;;0.50;;
59338;SDS011;45117;50.960;5.500;2022-07-15T08:57:15;3.28;;;0.80;;
59338;SDS011;45117;50.960;5.500;2022-07-15T08:59:42;2.20;;;0.80;;
59338;SDS011;45117;50.960;5.500;2022-07-15T09:02:11;2.10;;;0.68;;
59338;SDS011;45117;50.960;5.500;2022-07-15T09:07:50;5.07;;;1.00;;
59338;SDS011;45117;50.960;5.500;2022-07-15T09:10:22;2.17;;;0.70;;
59338;SDS011;45117;50.960;5.500;2022-07-15T09:12:50;2.65;;;0.65;;
59338;SDS011;45117;50.960;5.500;2022-07-15T09:15:31;4.18;;;0.70;;
59338;SDS011;45117;50.960;5.500;2022-07-15T09:18:09;2.83;;;0.75;;
59338;SDS011;45117;50.960;5.500;2022-07-15T09:20:37;3.85;;;0.75;;
59338;SDS011;45117;50.960;5.500;2022-07-15T09:23:05;4.05;;;0.70;;
59338;SDS011;45117;50.960;5.500;2022-07-15T09:25:33;4.68;;;0.80;;
59338;SDS011;45117;50.960;5.500;2022-07-15T09:28:01;3.95;;;0.93;;
59338;SDS011;45117;50.960;5.500;2022-07-15T09:30:29;4.93;;;0.80;;
59338;SDS011;45117;50.960;5.500;2022-07-15T09:33:16;4.88;;;0.80;;
59338;SDS011;45117;50.960;5.500;2022-07-15T09:36:11;5.13;;;0.80;;
59338;SDS011;45117;50.960;5.500;2022-07-15T09:38:42;1.95;;;0.57;;
59338;SDS011;45117;50.960;5.500;2022-07-15T09:41:19;2.28;;;0.60;;
59338;SDS011;45117;50.960;5.500;2022-07-15T09:43:51;2.55;;;0.70;;
59338;SDS011;45117;50.960;5.500;2022-07-15T09:46:18;2.83;;;0.60;;
59338;SDS011;45117;50.960;5.500;2022-07-15T09:48:46;3.17;;;0.70;;
59338;SDS011;45117;50.960;5.500;2022-07-15T09:51:15;2.63;;;0.63;;
59338;SDS011;45117;50.960;5.500;2022-07-15T09:53:44;1.75;;;0.50;;
59338;SDS011;45117;50.960;5.500;2022-07-15T09:56:12;2.85;;;0.80;;
59338;SDS011;45117;50.960;5.500;2022-07-15T09:58:40;3.03;;;0.88;;
59338;SDS011;45117;50.960;5.500;2022-07-15T10:01:08;3.00;;;0.68;;
59338;SDS011;45117;50.960;5.500;2022-07-15T10:03:36;2.53;;;0.60;;
59338;SDS011;45117;50.960;5.500;2022-07-15T10:06:03;2.65;;;0.52;;
59338;SDS011;45117;50.960;5.500;2022-07-15T10:08:31;4.00;;;1.33;;
59338;SDS011;45117;50.960;5.500;2022-07-15T10:11:01;3.65;;;1.35;;
59338;SDS011;45117;50.960;5.500;2022-07-15T10:13:37;3.25;;;0.73;;
59338;SDS011;45117;50.960;5.500;2022-07-15T10:19:49;3.45;;;0.57;;
59338;SDS011;45117;50.960;5.500;2022-07-15T10:22:30;2.35;;;0.60;;
59338;SDS011;45117;50.960;5.500;2022-07-15T10:25:18;3.00;;;0.60;;
59338;SDS011;45117;50.960;5.500;2022-07-15T10:27:57;2.15;;;0.50;;
59338;SDS011;45117;50.960;5.500;2022-07-15T10:30:29;2.58;;;0.70;;
59338;SDS011;45117;50.960;5.500;2022-07-15T10:33:12;4.18;;;0.73;;
59338;SDS011;45117;50.960;5.500;2022-07-15T10:35:43;1.83;;;0.50;;
59338;SDS011;45117;50.960;5.500;2022-07-15T10:38:24;1.90;;;0.47;;
59338;SDS011;45117;50.960;5.500;2022-07-15T10:41:03;4.40;;;1.00;;
59338;SDS011;45117;50.960;5.500;2022-07-15T10:43:40;2.47;;;0.63;;
59338;SDS011;45117;50.960;5.500;2022-07-15T10:52:09;3.33;;;0.55;;
59338;SDS011;45117;50.960;5.500;2022-07-15T10:54:49;2.05;;;0.43;;
59338;SDS011;45117;50.960;5.500;2022-07-15T10:57:17;1.42;;;0.57;;
59338;SDS011;45117;50.960;5.500;2022-07-15T10:59:53;2.80;;;0.60;;
59338;SDS011;45117;50.960;5.500;2022-07-15T11:02:22;2.15;;;0.43;;
59338;SDS011;45117;50.960;5.500;2022-07-15T11:04:51;2.38;;;0.47;;
59338;SDS011;45117;50.960;5.500;2022-07-15T11:07:38;2.05;;;0.52;;
59338;SDS011;45117;50.960;5.500;2022-07-15T11:10:14;2.67;;;0.60;;
59338;SDS011;45117;50.960;5.500;2022-07-15T11:12:55;1.88;;;0.57;;
59338;SDS011;45117;50.960;5.500;2022-07-15T11:15:29;2.45;;;0.47;;
59338;SDS011;45117;50.960;5.500;2022-07-15T11:17:57;2.40;;;0.50;;
59338;SDS011;45117;50.960;5.500;2022-07-15T11:20:26;3.22;;;0.50;;
59338;SDS011;45117;50.960;5.500;2022-07-15T11:22:58;2.17;;;0.60;;
59338;SDS011;45117;50.960;5.500;2022-07-15T11:25:27;2.97;;;0.47;;
59338;SDS011;45117;50.960;5.500;2022-07-15T11:28:06;3.08;;;0.35;;
59338;SDS011;45117;50.960;5.500;2022-07-15T11:30:37;1.65;;;0.40;;
59338;SDS011;45117;50.960;5.500;2022-07-15T11:33:06;2.58;;;0.45;;
59338;SDS011;45117;50.960;5.500;2022-07-15T11:35:48;2.78;;;0.60;;
59338;SDS011;45117;50.960;5.500;2022-07-15T11:38:17;3.33;;;0.50;;
59338;SDS011;45117;50.960;5.500;2022-07-15T11:40:48;3.45;;;0.50;;
59338;SDS011;45117;50.960;5.500;2022-07-15T11:43:34;2.25;;;0.47;;
59338;SDS011;45117;50.960;5.500;2022-07-15T11:46:20;1.85;;;0.52;;
59338;SDS011;45117;50.960;5.500;2022-07-15T11:48:47;1.48;;;0.50;;
59338;SDS011;45117;50.960;5.500;2022-07-15T11:51:15;1.48;;;0.38;;
59338;SDS011;45117;50.960;5.500;2022-07-15T11:53:43;1.75;;;0.55;;
59338;SDS011;45117;50.960;5.500;2022-07-15T11:56:13;2.00;;;0.57;;
59338;SDS011;45117;50.960;5.500;2022-07-15T11:58:41;2.25;;;0.50;;
59338;SDS011;45117;50.960;5.500;2022-07-15T12:01:09;1.65;;;0.30;;
59338;SDS011;45117;50.960;5.500;2022-07-15T12:03:39;2.10;;;0.43;;
59338;SDS011;45117;50.960;5.500;2022-07-15T12:06:11;1.77;;;0.28;;
59338;SDS011;45117;50.960;5.500;2022-07-15T12:08:40;1.33;;;0.32;;
59338;SDS011;45117;50.960;5.500;2022-07-15T12:11:16;2.40;;;0.85;;
59338;SDS011;45117;50.960;5.500;2022-07-15T12:13:50;0.85;;;0.40;;
59338;SDS011;45117;50.960;5.500;2022-07-15T12:16:20;3.40;;;0.30;;
59338;SDS011;45117;50.960;5.500;2022-07-15T12:18:51;1.38;;;0.30;;
59338;SDS011;45117;50.960;5.500;2022-07-15T12:21:19;1.38;;;0.40;;
59338;SDS011;45117;50.960;5.500;2022-07-15T12:24:03;1.92;;;0.40;;
59338;SDS011;45117;50.960;5.500;2022-07-15T12:26:33;1.73;;;0.50;;
59338;SDS011;45117;50.960;5.500;2022-07-15T12:29:04;1.08;;;0.47;;
59338;SDS011;45117;50.960;5.500;2022-07-15T12:31:32;1.90;;;0.47;;
59338;SDS011;45117;50.960;5.500;2022-07-15T12:34:01;3.60;;;0.68;;
59338;SDS011;45117;50.960;5.500;2022-07-15T12:36:29;1.27;;;0.30;;
59338;SDS011;45117;50.960;5.500;2022-07-15T12:39:07;1.85;;;0.50;;
59338;SDS011;45117;50.960;5.500;2022-07-15T12:41:39;1.60;;;0.38;;
59338;SDS011;45117;50.960;5.500;2022-07-15T12:44:07;3.47;;;0.50;;
59338;SDS011;45117;50.960;5.500;2022-07-15T12:46:51;2.13;;;0.40;;
59338;SDS011;45117;50.960;5.500;2022-07-15T12:49:41;2.83;;;0.57;;
59338;SDS011;45117;50.960;5.500;2022-07-15T12:52:13;1.80;;;0.50;;
59338;SDS011;45117;50.960;5.500;2022-07-15T12:54:41;1.13;;;0.43;;
59338;SDS011;45117;50.960;5.500;2022-07-15T12:57:17;1.55;;;0.45;;
59338;SDS011;45117;50.960;5.500;2022-07-15T12:59:51;2.25;;;0.40;;
59338;SDS011;45117;50.960;5.500;2022-07-15T13:02:19;1.98;;;0.52;;
59338;SDS011;45117;50.960;5.500;2022-07-15T13:04:47;3.03;;;0.75;;
59338;SDS011;45117;50.960;5.500;2022-07-15T13:07:14;1.70;;;0.50;;
59338;SDS011;45117;50.960;5.500;2022-07-15T13:09:42;3.35;;;0.50;;
59338;SDS011;45117;50.960;5.500;2022-07-15T13:12:09;2.08;;;0.60;;
59338;SDS011;45117;50.960;5.500;2022-07-15T13:14:36;1.35;;;0.50;;
59338;SDS011;45117;50.960;5.500;2022-07-15T13:17:03;1.75;;;0.40;;
59338;SDS011;45117;50.960;5.500;2022-07-15T13:19:30;1.65;;;0.47;;
59338;SDS011;45117;50.960;5.500;2022-07-15T13:21:59;1.60;;;0.50;;
59338;SDS011;45117;50.960;5.500;2022-07-15T13:24:26;2.35;;;0.60;;
59338;SDS011;45117;50.960;5.500;2022-07-15T13:26:53;1.65;;;0.50;;
59338;SDS011;45117;50.960;5.500;2022-07-15T13:29:19;2.25;;;0.60;;
59338;SDS011;45117;50.960;5.500;2022-07-15T13:31:46;0.82;;;0.40;;
59338;SDS011;45117;50.960;5.500;2022-07-15T13:34:12;1.92;;;0.50;;
59338;SDS011;45117;50.960;5.500;2022-07-15T13:36:40;0.80;;;0.30;;
59338;SDS011;45117;50.960;5.500;2022-07-15T13:39:08;2.22;;;0.45;;
59338;SDS011;45117;50.960;5.500;2022-07-15T13:41:34;1.33;;;0.50;;
59338;SDS011;45117;50.960;5.500;2022-07-15T13:44:01;1.98;;;0.50;;
59338;SDS011;45117;50.960;5.500;2022-07-15T13:46:28;3.17;;;0.45;;
59338;SDS011;45117;50.960;5.500;2022-07-15T13:48:54;2.92;;;0.60;;
59338;SDS011;45117;50.960;5.500;2022-07-15T13:51:21;1.17;;;0.43;;
59338;SDS011;45117;50.960;5.500;2022-07-15T13:53:49;1.40;;;0.35;;
59338;SDS011;45117;50.960;5.500;2022-07-15T13:56:17;1.73;;;0.60;;
59338;SDS011;45117;50.960;5.500;2022-07-15T13:58:44;2.50;;;0.60;;
59338;SDS011;45117;50.960;5.500;2022-07-15T14:01:11;1.15;;;0.40;;
59338;SDS011;45117;50.960;5.500;2022-07-15T14:03:38;3.53;;;0.50;;
59338;SDS011;45117;50.960;5.500;2022-07-15T14:06:04;1.92;;;0.60;;
59338;SDS011;45117;50.960;5.500;2022-07-15T14:08:31;1.95;;;0.60;;
59338;SDS011;45117;50.960;5.500;2022-07-15T14:10:58;1.50;;;0.40;;
59338;SDS011;45117;50.960;5.500;2022-07-15T14:13:26;2.17;;;0.50;;
59338;SDS011;45117;50.960;5.500;2022-07-15T14:15:52;1.65;;;0.50;;
59338;SDS011;45117;50.960;5.500;2022-07-15T14:18:19;0.98;;;0.50;;
59338;SDS011;45117;50.960;5.500;2022-07-15T14:21:06;1.55;;;0.63;;
59338;SDS011;45117;50.960;5.500;2022-07-15T14:23:32;2.72;;;0.50;;
59338;SDS011;45117;50.960;5.500;2022-07-15T14:25:59;2.10;;;0.65;;
59338;SDS011;45117;50.960;5.500;2022-07-15T14:28:27;3.00;;;0.50;;
59338;SDS011;45117;50.960;5.500;2022-07-15T14:30:54;1.70;;;0.50;;
59338;SDS011;45117;50.960;5.500;2022-07-15T14:33:20;4.32;;;0.50;;
59338;SDS011;45117;50.960;5.500;2022-07-15T14:35:47;2.25;;;0.40;;
59338;SDS011;45117;50.960;5.500;2022-07-15T14:38:13;1.00;;;0.30;;
59338;SDS011;45117;50.960;5.500;2022-07-15T14:40:40;2.92;;;0.40;;
59338;SDS011;45117;50.960;5.500;2022-07-15T14:43:06;2.88;;;0.70;;
59338;SDS011;45117;50.960;5.500;2022-07-15T14:45:34;1.13;;;0.38;;
59338;SDS011;45117;50.960;5.500;2022-07-15T14:48:01;7.63;;;4.18;;
59338;SDS011;45117;50.960;5.500;2022-07-15T14:50:27;1.00;;;0.57;;
59338;SDS011;45117;50.960;5.500;2022-07-15T14:52:54;2.13;;;0.65;;
59338;SDS011;45117;50.960;5.500;2022-07-15T14:55:20;0.77;;;0.40;;
59338;SDS011;45117;50.960;5.500;2022-07-15T14:57:47;1.35;;;0.50;;
59338;SDS011;45117;50.960;5.500;2022-07-15T15:00:14;1.90;;;0.50;;
59338;SDS011;45117;50.960;5.500;2022-07-15T15:02:42;1.85;;;0.52;;
59338;SDS011;45117;50.960;5.500;2022-07-15T15:05:09;2.72;;;0.50;;
59338;SDS011;45117;50.960;5.500;2022-07-15T15:07:35;2.20;;;0.70;;